Humidity-temperature Sensor

Selected Measurement Type: Relative Humidity

 
Relative Humidity [%]     6 entries per hour
Showing data from 4/18/2021 (00:00:00 Z) to 4/11/2021 (00:01:00 Z)
Previous Next [ Day | 3-Days | 7-Days ]
First Last
Prev [ Day | 3-Days | 7-Days ] Next
First Last

Start Time:     :
End Time:     :     
Time (in GMT) :00 :50 :40 :30 :20 :10
Previous Next [ Day | 3-Days | 7-Days ]
First Last
Prev [ Day | 3-Days | 7-Days ] Next
First Last


123 => good data
MM => data is determined as missing
-- => data not received/configured
Back to Top Back to Top
4/18/2021 00:00 to 23:10 94.07 94.40 94.17 94.13 93.64 93.94
4/17/2021 23:00 to 22:10 93.14 92.36 92.22 91.23 89.77 88.42
4/17/2021 22:00 to 21:10 86.87 87.24 88.70 90.90 90.49 89.79
4/17/2021 21:00 to 20:10 89.34 87.68 86.30 86.90 88.07 88.68
4/17/2021 20:00 to 19:10 88.33 89.63 89.83 90.66 90.90 91.70
4/17/2021 19:00 to 18:10 93.90 94.97 94.83 94.09 92.18 88.72
4/17/2021 18:00 to 17:10 87.18 86.98 87.61 87.37 87.06 87.08
4/17/2021 17:00 to 16:10 87.94 87.94 87.82 88.15 88.03 88.85
4/17/2021 16:00 to 15:10 88.74 87.92 87.29 87.12 87.80 88.62
4/17/2021 15:00 to 14:10 88.74 89.40 90.31 90.24 89.32 89.55
4/17/2021 14:00 to 13:10 89.38 90.84 90.78 89.11 88.15 87.76
4/17/2021 13:00 to 12:10 87.61 87.70 88.09 88.72 89.46 90.61
4/17/2021 12:00 to 11:10 90.88 90.72 90.66 91.97 92.14 92.44
4/17/2021 11:00 to 10:10 91.95 90.55 90.16 90.10 89.42 89.07
4/17/2021 10:00 to 9:10 89.61 90.53 90.16 90.20 90.80 89.96
4/17/2021 09:00 to 8:10 89.73 89.53 89.42 89.85 90.61 90.41
4/17/2021 08:00 to 7:10 90.06 90.33 90.20 90.59 90.24 89.79
4/17/2021 07:00 to 6:10 89.44 89.42 88.81 88.50 89.38 90.10
4/17/2021 06:00 to 5:10 89.98 89.90 89.67 89.44 89.03 88.97
4/17/2021 05:00 to 4:10 89.13 88.72 88.79 89.01 88.29 89.05
4/17/2021 04:00 to 3:10 88.60 88.19 88.42 88.66 88.27 88.40
4/17/2021 03:00 to 2:10 89.46 89.28 88.62 88.50 87.76 87.39
4/17/2021 02:00 to 1:10 87.22 88.17 88.15 87.82 87.18 87.10
4/17/2021 01:00 to 0:10 87.14 87.55 88.23 88.17 87.33 86.42
4/17/2021 00:00 to 23:10 84.88 84.39 84.45 85.95 86.61 86.30
4/16/2021 23:00 to 22:10 86.34 86.87 86.26 85.17 85.37 86.90
4/16/2021 22:00 to 21:10 87.35 87.63 87.72 86.71 87.31 86.96
4/16/2021 21:00 to 20:10 86.34 86.63 86.67 87.22 87.04 86.90
4/16/2021 20:00 to 19:10 86.98 86.83 86.81 87.08 87.63 87.31
4/16/2021 19:00 to 18:10 87.90 87.51 87.94 87.90 88.70 88.27
4/16/2021 18:00 to 17:10 87.12 87.49 88.60 89.09 90.02 91.37
4/16/2021 17:00 to 16:10 92.46 93.39 93.51 93.14 92.48 91.99
4/16/2021 16:00 to 15:10 91.19 90.31 89.28 89.11 89.01 89.03
4/16/2021 15:00 to 14:10 89.32 88.72 87.80 87.92 88.56 89.55
4/16/2021 14:00 to 13:10 89.71 90.12 90.31 89.79 90.55 91.85
4/16/2021 13:00 to 12:10 92.83 93.49 93.72 94.05 94.58 94.91
4/16/2021 12:00 to 11:10 95.28 95.61 95.71 95.94 95.79 95.83
4/16/2021 11:00 to 10:10 95.83 96.04 95.90 96.12 96.37 96.70
4/16/2021 10:00 to 9:10 96.92 97.40 98.09 98.85 99.41 99.72
4/16/2021 09:00 to 8:10 99.90 100.01 100.11 100.09 100.03 100.17
4/16/2021 08:00 to 7:10 100.21 100.13 100.01 100.15 100.11 100.15
4/16/2021 07:00 to 6:10 99.90 99.86 99.84 99.98 99.98 99.76
4/16/2021 06:00 to 5:10 99.76 99.02 98.77 98.73 98.59 98.46
4/16/2021 05:00 to 4:10 98.40 98.26 98.11 97.54 97.29 96.86
4/16/2021 04:00 to 3:10 96.29 95.71 95.28 95.20 95.75 95.69
4/16/2021 03:00 to 2:10 95.69 95.30 94.77 93.59 92.09 93.14
4/16/2021 02:00 to 1:10 93.33 93.55 93.33 93.43 93.20 93.16
4/16/2021 01:00 to 0:10 93.86 95.05 96.02 96.14 96.37 96.74
4/16/2021 00:00 to 23:10 96.82 96.82 97.38 98.38 99.78 100.17
4/15/2021 23:00 to 22:10 100.46 100.46 100.33 100.33 99.90 99.94
4/15/2021 22:00 to 21:10 99.92 99.35 99.22 99.14 99.10 98.83
4/15/2021 21:00 to 20:10 98.61 97.91 97.03 95.61 93.24 89.77
4/15/2021 20:00 to 19:10 88.42 88.62 88.35 87.76 86.83 86.32
4/15/2021 19:00 to 18:10 86.61 86.73 86.61 86.67 87.57 87.57
4/15/2021 18:00 to 17:10 87.80 88.42 88.15 86.83 88.13 89.01
4/15/2021 17:00 to 16:10 88.81 88.91 88.85 88.77 89.09 88.58
4/15/2021 16:00 to 15:10 87.90 87.39 87.59 87.55 87.90 88.23
4/15/2021 15:00 to 14:10 88.48 88.87 89.92 90.02 90.02 90.08
4/15/2021 14:00 to 13:10 90.76 90.92 91.19 91.52 91.05 91.56
4/15/2021 13:00 to 12:10 91.89 91.42 91.46 91.03 90.51 90.51
4/15/2021 12:00 to 11:10 90.63 91.31 91.79 91.81 92.14 91.93
4/15/2021 11:00 to 10:10 91.77 91.81 93.02 94.19 95.05 95.57
4/15/2021 10:00 to 9:10 95.36 94.77 94.50 94.50 94.79 95.18
4/15/2021 09:00 to 8:10 95.07 94.64 93.88 92.59 92.59 92.59
4/15/2021 08:00 to 7:10 92.26 91.87 92.65 93.06 92.87 92.67
4/15/2021 07:00 to 6:10 92.75 92.90 93.33 93.96 94.07 93.86
4/15/2021 06:00 to 5:10 93.66 92.96 92.09 91.60 91.11 91.00
4/15/2021 05:00 to 4:10 90.66 90.70 91.29 91.54 91.91 91.42
4/15/2021 04:00 to 3:10 91.31 91.99 92.73 93.33 92.90 93.39
4/15/2021 03:00 to 2:10 93.92 93.72 93.53 93.49 93.27 93.22
4/15/2021 02:00 to 1:10 92.87 92.94 93.29 93.74 93.43 92.92
4/15/2021 01:00 to 0:10 91.52 91.05 90.76 90.92 90.86 91.64
4/15/2021 00:00 to 23:10 91.87 91.64 89.94 88.77 88.25 86.69
4/14/2021 23:00 to 22:10 85.23 85.31 87.20 88.44 88.48 87.76
4/14/2021 22:00 to 21:10 87.08 86.92 86.92 87.53 87.45 88.58
4/14/2021 21:00 to 20:10 89.03 88.79 87.92 88.00 88.00 87.61
4/14/2021 20:00 to 19:10 87.61 87.55 87.29 87.08 88.07 88.42
4/14/2021 19:00 to 18:10 88.50 87.82 88.15 88.48 88.79 89.42
4/14/2021 18:00 to 17:10 89.79 89.46 89.01 88.66 87.39 86.61
4/14/2021 17:00 to 16:10 86.98 87.45 87.53 87.66 87.90 88.68
4/14/2021 16:00 to 15:10 90.04 90.53 90.00 89.71 90.12 89.92
4/14/2021 15:00 to 14:10 90.31 91.00 91.25 91.62 92.48 92.85
4/14/2021 14:00 to 13:10 93.08 92.92 92.81 93.06 92.81 93.29
4/14/2021 13:00 to 12:10 93.80 93.76 94.27 94.50 95.01 95.38
4/14/2021 12:00 to 11:10 95.40 95.51 95.40 94.66 93.37 92.69
4/14/2021 11:00 to 10:10 92.71 92.32 92.96 93.61 94.25 94.50
4/14/2021 10:00 to 9:10 94.83 94.81 94.99 95.09 95.28 95.26
4/14/2021 09:00 to 8:10 95.57 95.51 95.36 95.05 95.05 94.81
4/14/2021 08:00 to 7:10 94.89 95.03 95.09 95.40 95.55 95.69
4/14/2021 07:00 to 6:10 95.65 95.75 96.04 96.24 96.18 96.37
4/14/2021 06:00 to 5:10 96.41 96.66 96.72 96.98 97.05 97.25
4/14/2021 05:00 to 4:10 97.52 97.54 97.58 97.66 98.05 98.03
4/14/2021 04:00 to 3:10 97.79 97.91 98.01 98.20 98.44 98.59
4/14/2021 03:00 to 2:10 98.81 98.73 99.02 99.16 99.31 99.29
4/14/2021 02:00 to 1:10 99.33 99.24 99.27 99.33 99.29 99.14
4/14/2021 01:00 to 0:10 98.94 98.81 98.61 98.48 98.44 98.14
4/14/2021 00:00 to 23:10 98.28 98.34 98.53 98.55 98.71 98.75
4/13/2021 23:00 to 22:10 98.69 98.71 98.88 98.73 98.59 98.51
4/13/2021 22:00 to 21:10 98.81 98.65 98.77 98.92 98.79 98.73
4/13/2021 21:00 to 20:10 98.59 98.67 98.65 98.26 98.07 97.85
4/13/2021 20:00 to 19:10 97.50 96.94 96.84 96.64 96.90 96.82
4/13/2021 19:00 to 18:10 97.19 97.27 97.17 97.01 96.80 96.47
4/13/2021 18:00 to 17:10 96.39 96.59 96.82 96.61 95.87 94.81
4/13/2021 17:00 to 16:10 93.31 92.57 92.07 92.01 91.87 91.33
4/13/2021 16:00 to 15:10 90.59 90.41 90.49 90.96 91.21 91.52
4/13/2021 15:00 to 14:10 91.27 91.60 91.85 91.46 91.58 91.54
4/13/2021 14:00 to 13:10 91.87 92.18 92.38 92.55 92.30 92.55
4/13/2021 13:00 to 12:10 92.85 93.00 93.24 93.49 93.74 93.74
4/13/2021 12:00 to 11:10 93.59 93.43 93.18 93.24 93.14 93.08
4/13/2021 11:00 to 10:10 93.41 94.03 94.64 95.28 95.83 96.08
4/13/2021 10:00 to 9:10 96.49 96.45 96.20 95.65 95.07 94.19
4/13/2021 09:00 to 8:10 93.53 93.64 91.68 88.46 86.79 86.36
4/13/2021 08:00 to 7:10 86.46 86.69 86.75 87.08 87.45 87.76
4/13/2021 07:00 to 6:10 88.35 88.66 89.07 88.91 89.22 89.28
4/13/2021 06:00 to 5:10 88.54 87.94 87.88 87.31 86.65 86.61
4/13/2021 05:00 to 4:10 86.53 86.44 87.66 89.92 92.36 93.80
4/13/2021 04:00 to 3:10 95.18 96.39 97.13 97.21 97.38 97.38
4/13/2021 03:00 to 2:10 98.59 98.63 98.75 98.69 98.67 98.69
4/13/2021 02:00 to 1:10 98.71 98.67 98.79 98.32 98.24 97.91
4/13/2021 01:00 to 0:10 97.44 97.19 96.51 95.79 94.70 92.63
4/13/2021 00:00 to 23:10 89.11 82.21 81.37 81.26 81.41 81.10
4/12/2021 23:00 to 22:10 80.46 79.25 78.70 79.50 79.58 79.58
4/12/2021 22:00 to 21:10 79.99 79.72 79.60 79.37 79.27 79.52
4/12/2021 21:00 to 20:10 79.97 80.09 79.39 79.56 80.20 80.26
4/12/2021 20:00 to 19:10 80.32 80.42 80.46 80.75 81.12 81.33
4/12/2021 19:00 to 18:10 81.24 81.61 81.43 81.90 81.78 82.37
4/12/2021 18:00 to 17:10 82.13 82.42 82.60 82.17 82.02 82.21
4/12/2021 17:00 to 16:10 82.17 82.09 82.66 83.53 84.02 84.20
4/12/2021 16:00 to 15:10 84.68 84.80 84.31 84.12 84.31 84.96
4/12/2021 15:00 to 14:10 84.96 85.05 84.96 84.76 84.06 83.59
4/12/2021 14:00 to 13:10 81.80 80.87 80.26 80.38 80.92 82.13
4/12/2021 13:00 to 12:10 82.64 83.26 83.55 83.65 83.44 83.63
4/12/2021 12:00 to 11:10 84.20 84.33 83.42 81.39 80.40 81.74
4/12/2021 11:00 to 10:10 81.35 80.79 81.12 82.05 82.39 81.39
4/12/2021 10:00 to 9:10 81.37 81.96 82.79 82.95 82.66 82.74
4/12/2021 09:00 to 8:10 83.24 83.53 83.61 83.42 83.42 83.48
4/12/2021 08:00 to 7:10 83.77 83.69 83.75 84.18 84.43 84.20
4/12/2021 07:00 to 6:10 84.59 84.45 84.53 84.66 84.70 84.78
4/12/2021 06:00 to 5:10 85.00 84.61 84.41 84.12 83.92 83.85
4/12/2021 05:00 to 4:10 83.61 83.26 83.24 83.34 83.44 83.36
4/12/2021 04:00 to 3:10 83.24 83.46 83.73 84.00 83.96 84.00
4/12/2021 03:00 to 2:10 84.20 83.89 83.55 83.30 82.95 82.56
4/12/2021 02:00 to 1:10 82.29 82.05 81.86 81.53 81.04 80.44
4/12/2021 01:00 to 0:10 80.13 80.03 79.54 78.74 77.38 75.74
4/12/2021 00:00 to 23:10 73.99 72.80 72.37 73.62 75.06 78.39
4/11/2021 23:00 to 22:10 80.05 80.57 80.85 80.55 79.91 79.72
4/11/2021 22:00 to 21:10 79.81 79.21 79.17 78.82 77.92 77.81
4/11/2021 21:00 to 20:10 77.77 77.36 77.05 77.13 78.20 81.92
4/11/2021 20:00 to 19:10 84.02 86.13 87.72 89.01 89.77 90.41
4/11/2021 19:00 to 18:10 91.19 91.19 91.25 91.56 92.11 93.22
4/11/2021 18:00 to 17:10 94.19 94.81 94.97 95.71 96.33 97.07
4/11/2021 17:00 to 16:10 97.03 96.84 96.70 96.64 96.45 95.90
4/11/2021 16:00 to 15:10 94.66 93.22 91.56 91.77 92.18 92.55
4/11/2021 15:00 to 14:10 92.67 91.70 90.22 89.38 89.46 89.50
4/11/2021 14:00 to 13:10 89.55 89.65 89.65 89.53 89.42 89.42
4/11/2021 13:00 to 12:10 89.73 90.12 90.53 90.45 90.39 90.24
4/11/2021 12:00 to 11:10 90.18 90.20 90.24 90.24 90.29 90.35
4/11/2021 11:00 to 10:10 90.39 90.33 90.45 90.43 90.47 90.61
4/11/2021 10:00 to 9:10 90.66 90.78 90.68 90.66 90.57 90.39
4/11/2021 09:00 to 8:10 90.22 89.85 89.77 89.38 89.18 89.30
4/11/2021 08:00 to 7:10 89.30 89.11 89.03 88.81 88.77 88.60
4/11/2021 07:00 to 6:10 88.60 88.46 88.29 88.11 87.98 87.78
4/11/2021 06:00 to 5:10 87.63 87.59 87.66 87.57 87.49 87.26
4/11/2021 05:00 to 4:10 87.29 87.12 86.92 86.77 86.81 86.79
4/11/2021 04:00 to 3:10 86.75 86.77 86.92 87.12 87.14 86.96
4/11/2021 03:00 to 2:10 86.77 86.77 86.63 86.34 86.20 86.34
4/11/2021 02:00 to 1:10 86.63 86.83 86.55 86.05 85.17 84.35
4/11/2021 01:00 to 0:10 83.94 83.46 83.42 83.07 82.39 81.86